Ames, Kansas
Current Conditions -  °F | °C
As of 1:55 PM on Friday 28 Nov 2014 (Local Time) from KCNK Reporting Station
Clear Clear  
Wind Chill: 63°   Ceiling: Unl
Heat Index: 63°   Visibility: 10mi
Dew Point: 31°   Wind: 13mph
Humidity: 30%   Direction: 200°SSW
Pressure: 29.75"   Gusts: NA
Location:  39.4716°N, 97.7305°W
Report Text: KCNK 281955Z AUTO 20011KT 10SM CLR 17/M01 A2975 RMK AO2 SLP076 T01721006
Loading
Personal Weather Stations






























Interactive Weather Map New forecast layout! Learn more

10-Day Weather Forecast

Advertisements
Track Severe Weather on mobile